createdAt,value
2022-11-28T00:00:09.736Z,95523
2022-11-28T00:01:19.396Z,95515
2022-11-28T00:02:27.342Z,95510
2022-11-28T00:03:35.816Z,95511
2022-11-28T00:04:45.504Z,95511
2022-11-28T00:05:54.152Z,95508
2022-11-28T00:07:03.831Z,95508
2022-11-28T00:08:13.489Z,95512
2022-11-28T00:09:23.152Z,95505
2022-11-28T00:10:32.881Z,95506
2022-11-28T00:11:40.584Z,95502
2022-11-28T00:12:49.248Z,95499
2022-11-28T00:13:57.921Z,95500
2022-11-28T00:15:06.643Z,95494
2022-11-28T00:16:16.389Z,95498
2022-11-28T00:17:25.006Z,95494
2022-11-28T00:18:33.795Z,95494
2022-11-28T00:19:43.342Z,95490
2022-11-28T00:20:53.028Z,95493
2022-11-28T00:22:01.699Z,95492
2022-11-28T00:23:10.375Z,95489
2022-11-28T00:24:20.029Z,95485
2022-11-28T00:25:29.709Z,95481
2022-11-28T00:26:37.407Z,95481
2022-11-28T00:27:47.092Z,95485
2022-11-28T00:28:56.759Z,95481
2022-11-28T00:30:06.460Z,95482
2022-11-28T00:31:15.193Z,95479
2022-11-28T00:32:24.819Z,95481
2022-11-28T00:33:34.575Z,95477
2022-11-28T00:34:43.587Z,95483
2022-11-28T00:35:52.959Z,95487
2022-11-28T00:37:02.659Z,95484
2022-11-28T00:38:12.463Z,95482
2022-11-28T00:39:21.203Z,95482
2022-11-28T00:40:29.863Z,95479
2022-11-28T00:41:38.562Z,95486
2022-11-28T00:42:47.270Z,95487
2022-11-28T00:43:57.034Z,95490
2022-11-28T00:45:05.780Z,95496
2022-11-28T00:46:13.522Z,95488
2022-11-28T00:47:23.251Z,95492
2022-11-28T00:48:30.819Z,95490
2022-11-28T00:49:39.538Z,95496
2022-11-28T00:50:48.343Z,95501
2022-11-28T00:51:57.866Z,95502
2022-11-28T00:53:08.564Z,95506
2022-11-28T00:54:17.220Z,95506
2022-11-28T00:55:26.926Z,95507
2022-11-28T00:56:36.600Z,95499
2022-11-28T00:57:44.291Z,95498
2022-11-28T00:58:52.985Z,95497
2022-11-28T01:00:01.782Z,95487
2022-11-28T01:01:10.497Z,95492
2022-11-28T01:02:19.220Z,95488
2022-11-28T01:03:27.835Z,95486
2022-11-28T01:04:36.485Z,95487
2022-11-28T01:05:46.198Z,95483
2022-11-28T01:06:55.047Z,95476
2022-11-28T01:08:03.639Z,95473
2022-11-28T01:09:12.426Z,95477
2022-11-28T01:10:21.108Z,95475
2022-11-28T01:11:30.809Z,95467
2022-11-28T01:12:38.524Z,95468
2022-11-28T01:13:47.204Z,95465
2022-11-28T01:14:56.955Z,95464
2022-11-28T01:16:05.674Z,95460
2022-11-28T01:17:13.362Z,95462
2022-11-28T01:18:23.082Z,95458
2022-11-28T01:19:31.738Z,95460
2022-11-28T01:20:41.440Z,95462
2022-11-28T01:21:50.163Z,95458
2022-11-28T01:22:59.917Z,95456
2022-11-28T01:24:09.679Z,95455
2022-11-28T01:25:18.334Z,95447
2022-11-28T01:26:28.190Z,95450
2022-11-28T01:27:36.890Z,95450
2022-11-28T01:28:45.536Z,95449
2022-11-28T01:29:55.239Z,95449
2022-11-28T01:31:03.971Z,95449
2022-11-28T01:32:13.583Z,95444
2022-11-28T01:33:21.329Z,95447
2022-11-28T01:34:29.937Z,95441
2022-11-28T01:35:39.692Z,95447
2022-11-28T01:36:49.366Z,95439
2022-11-28T01:37:58.028Z,95440
2022-11-28T01:39:07.816Z,95440
2022-11-28T01:40:17.410Z,95435
2022-11-28T01:41:27.078Z,95441
2022-11-28T01:42:35.770Z,95437
2022-11-28T01:43:44.419Z,95436
2022-11-28T01:44:54.148Z,95436
2022-11-28T01:46:02.821Z,95442
2022-11-28T01:47:12.585Z,95436
2022-11-28T01:48:22.190Z,95436
2022-11-28T01:49:30.844Z,95436
2022-11-28T01:50:40.557Z,95437
2022-11-28T01:51:48.234Z,95435
2022-11-28T01:52:56.903Z,95431
2022-11-28T01:54:06.597Z,95435
2022-11-28T01:55:15.366Z,95428
2022-11-28T01:56:23.914Z,95429
2022-11-28T01:57:32.594Z,95434
2022-11-28T01:58:41.330Z,95431
2022-11-28T01:59:50.999Z,95434
2022-11-28T02:00:58.751Z,95428
2022-11-28T02:02:08.489Z,95425
2022-11-28T02:03:18.094Z,95424
2022-11-28T02:04:28.039Z,95417
2022-11-28T02:05:36.779Z,95413
2022-11-28T02:06:46.488Z,95416
2022-11-28T02:07:55.203Z,95413
2022-11-28T02:09:04.865Z,95415
2022-11-28T02:10:13.676Z,95409
2022-11-28T02:11:22.442Z,95414
2022-11-28T02:12:32.010Z,95413
2022-11-28T02:13:40.699Z,95422
2022-11-28T02:14:49.379Z,95431
2022-11-28T02:15:58.104Z,95439
2022-11-28T02:17:07.781Z,95443
2022-11-28T02:18:16.437Z,95449
2022-11-28T02:19:24.096Z,95451
2022-11-28T02:20:32.761Z,95449
2022-11-28T02:21:42.484Z,95447
2022-11-28T02:22:51.145Z,95455
2022-11-28T02:23:59.850Z,95466
2022-11-28T02:25:08.522Z,95474
2022-11-28T02:26:18.157Z,95472
2022-11-28T02:27:28.000Z,95456
2022-11-28T02:28:37.556Z,95447
2022-11-28T02:29:47.266Z,95440
2022-11-28T02:30:57.040Z,95441
2022-11-28T02:32:06.628Z,95439
2022-11-28T02:33:16.364Z,95443
2022-11-28T02:34:26.038Z,95444
2022-11-28T02:35:35.740Z,95434
2022-11-28T02:36:45.406Z,95426
2022-11-28T02:37:53.070Z,95427
2022-11-28T02:39:01.837Z,95435
2022-11-28T02:40:11.499Z,95437
2022-11-28T02:41:20.176Z,95434
2022-11-28T02:42:28.921Z,95428
2022-11-28T02:43:38.705Z,95416
2022-11-28T02:44:48.379Z,95418
2022-11-28T02:45:58.038Z,95411
2022-11-28T02:47:06.736Z,95413
2022-11-28T02:48:15.380Z,95409
2022-11-28T02:49:25.105Z,95406
2022-11-28T02:50:33.779Z,95400
2022-11-28T02:51:42.474Z,95403
2022-11-28T02:52:52.207Z,95400
2022-11-28T02:54:01.871Z,95401
2022-11-28T02:55:11.618Z,95400
2022-11-28T02:56:20.286Z,95404
2022-11-28T02:57:28.953Z,95401
2022-11-28T02:58:38.617Z,95396
2022-11-28T02:59:46.402Z,95391
2022-11-28T03:00:55.002Z,95388
2022-11-28T03:02:03.670Z,95394
2022-11-28T03:03:12.316Z,95394
2022-11-28T03:04:22.048Z,95398
2022-11-28T03:05:30.741Z,95395
2022-11-28T03:06:39.403Z,95396
2022-11-28T03:07:49.306Z,95391
2022-11-28T03:08:57.937Z,95390
2022-11-28T03:10:07.595Z,95393
2022-11-28T03:11:17.285Z,95391
2022-11-28T03:12:26.977Z,95390
2022-11-28T03:13:36.653Z,95388
2022-11-28T03:14:44.548Z,95384
2022-11-28T03:15:53.128Z,95387
2022-11-28T03:17:02.699Z,95389
2022-11-28T03:18:11.573Z,95388
2022-11-28T03:19:20.405Z,95389
2022-11-28T03:20:27.080Z,95389
2022-11-28T03:21:35.756Z,95397
2022-11-28T03:22:44.433Z,95398
2022-11-28T03:23:53.112Z,95399
2022-11-28T03:25:02.811Z,95402
2022-11-28T03:26:09.477Z,95404
2022-11-28T03:27:18.188Z,95404
2022-11-28T03:28:27.945Z,95392
2022-11-28T03:29:35.600Z,95391
2022-11-28T03:30:45.379Z,95382
2022-11-28T03:31:54.200Z,95381
2022-11-28T03:33:03.829Z,95382
2022-11-28T03:34:13.513Z,95376
2022-11-28T03:35:22.196Z,95373
2022-11-28T03:36:30.883Z,95376
2022-11-28T03:37:40.573Z,95379
2022-11-28T03:38:48.221Z,95385
2022-11-28T03:39:56.880Z,95381
2022-11-28T03:41:05.550Z,95376
2022-11-28T03:42:15.336Z,95384
2022-11-28T03:43:25.015Z,95383
2022-11-28T03:44:32.692Z,95370
2022-11-28T03:45:41.355Z,95363
2022-11-28T03:46:51.102Z,95364
2022-11-28T03:47:58.897Z,95368
2022-11-28T03:49:07.426Z,95367
2022-11-28T03:50:16.144Z,95371
2022-11-28T03:51:24.803Z,95363
2022-11-28T03:52:34.472Z,95353
2022-11-28T03:53:42.161Z,95344
2022-11-28T03:54:51.831Z,95343
2022-11-28T03:56:01.550Z,95345
2022-11-28T03:57:09.185Z,95342
2022-11-28T03:58:19.075Z,95346
2022-11-28T03:59:28.862Z,95353
2022-11-28T04:00:37.580Z,95352
2022-11-28T04:01:47.242Z,95338
2022-11-28T04:02:54.957Z,95337
2022-11-28T04:04:04.697Z,95337
2022-11-28T04:05:14.292Z,95337
2022-11-28T04:06:22.962Z,95335
2022-11-28T04:07:31.682Z,95330
2022-11-28T04:08:40.308Z,95326
2022-11-28T04:09:48.964Z,95324
2022-11-28T04:10:58.669Z,95325
2022-11-28T04:12:06.438Z,95323
2022-11-28T04:13:15.188Z,95320
2022-11-28T04:14:24.916Z,95320
2022-11-28T04:15:33.615Z,95327
2022-11-28T04:16:42.489Z,95325
2022-11-28T04:17:52.145Z,95323
2022-11-28T04:19:00.840Z,95321
2022-11-28T04:20:10.634Z,95316
2022-11-28T04:21:20.192Z,95314
2022-11-28T04:22:29.913Z,95316
2022-11-28T04:23:38.596Z,95323
2022-11-28T04:24:47.264Z,95322
2022-11-28T04:25:56.960Z,95315
2022-11-28T04:27:05.708Z,95309
2022-11-28T04:28:14.330Z,95309
2022-11-28T04:29:24.995Z,95311
2022-11-28T04:30:33.646Z,95313
2022-11-28T04:31:42.578Z,95314
2022-11-28T04:32:52.181Z,95318
2022-11-28T04:34:00.879Z,95317
2022-11-28T04:35:10.543Z,95312
2022-11-28T04:36:19.327Z,95306
2022-11-28T04:37:28.849Z,95312
2022-11-28T04:38:38.521Z,95306
2022-11-28T04:39:47.252Z,95301
2022-11-28T04:40:55.865Z,95301
2022-11-28T04:42:05.540Z,95300
2022-11-28T04:43:14.271Z,95311
2022-11-28T04:44:22.955Z,95303
2022-11-28T04:45:31.705Z,95301
2022-11-28T04:46:41.298Z,95296
2022-11-28T04:47:50.970Z,95297
2022-11-28T04:48:59.642Z,95304
2022-11-28T04:50:08.319Z,95305
2022-11-28T04:51:18.018Z,95308
2022-11-28T04:52:25.791Z,95310
2022-11-28T04:53:35.333Z,95309
2022-11-28T04:54:44.254Z,95317
2022-11-28T04:55:53.686Z,95324
2022-11-28T04:57:03.383Z,95326
2022-11-28T04:58:11.055Z,95321
2022-11-28T04:59:20.731Z,95333
2022-11-28T05:00:30.466Z,95333
2022-11-28T05:01:38.187Z,95330
2022-11-28T05:02:47.791Z,95323
2022-11-28T05:03:57.478Z,95322
2022-11-28T05:05:06.098Z,95326
2022-11-28T05:06:15.815Z,95322
2022-11-28T05:07:23.494Z,95318
2022-11-28T05:08:33.279Z,95323
2022-11-28T05:09:42.825Z,95321
2022-11-28T05:10:50.480Z,95324
2022-11-28T05:11:59.152Z,95320
2022-11-28T05:13:08.904Z,95310
2022-11-28T05:14:18.606Z,95304
2022-11-28T05:15:28.281Z,95294
2022-11-28T05:16:38.029Z,95286
2022-11-28T05:17:46.639Z,95273
2022-11-28T05:18:54.294Z,95250
2022-11-28T05:20:03.082Z,95241
2022-11-28T05:21:12.739Z,95239
2022-11-28T05:22:20.377Z,95238
2022-11-28T05:23:29.038Z,95248
2022-11-28T05:24:38.848Z,95273
2022-11-28T05:25:48.407Z,95302
2022-11-28T05:26:58.082Z,95339
2022-11-28T05:28:05.732Z,95351
2022-11-28T05:29:15.384Z,95341
2022-11-28T05:30:25.051Z,95325
2022-11-28T05:31:32.759Z,95332
2022-11-28T05:32:41.442Z,95356
2022-11-28T05:33:49.100Z,95372
2022-11-28T05:34:58.788Z,95367
2022-11-28T05:36:12.533Z,95351
2022-11-28T05:37:18.201Z,95352
2022-11-28T05:38:27.865Z,95358
2022-11-28T05:39:37.638Z,95370
2022-11-28T05:40:45.405Z,95363
2022-11-28T05:41:53.955Z,95347
2022-11-28T05:43:03.650Z,95342
2022-11-28T05:44:12.319Z,95353
2022-11-28T05:45:22.092Z,95358
2022-11-28T05:46:30.643Z,95357
2022-11-28T05:47:40.297Z,95355
2022-11-28T05:48:49.980Z,95350
2022-11-28T05:49:57.674Z,95352
2022-11-28T05:51:06.334Z,95354
2022-11-28T05:52:15.995Z,95348
2022-11-28T05:53:24.696Z,95347
2022-11-28T05:54:34.364Z,95341
2022-11-28T05:55:42.045Z,95342
2022-11-28T05:56:49.831Z,95351
2022-11-28T05:57:59.431Z,95347
2022-11-28T05:59:07.626Z,95337
2022-11-28T06:00:17.330Z,95330
2022-11-28T06:01:26.090Z,95336
2022-11-28T06:02:35.814Z,95350
2022-11-28T06:03:45.456Z,95352
2022-11-28T06:04:53.211Z,95343
2022-11-28T06:06:01.800Z,95333
2022-11-28T06:07:11.472Z,95335
2022-11-28T06:08:21.148Z,95332
2022-11-28T06:09:30.821Z,95330
2022-11-28T06:10:40.479Z,95327
2022-11-28T06:11:49.217Z,95330
2022-11-28T06:12:58.997Z,95320
2022-11-28T06:14:08.549Z,95313
2022-11-28T06:15:18.219Z,95314
2022-11-28T06:16:28.006Z,95325
2022-11-28T06:17:36.622Z,95330
2022-11-28T06:18:45.290Z,95327
2022-11-28T06:19:53.959Z,95323
2022-11-28T06:21:03.667Z,95311
2022-11-28T06:22:13.333Z,95317
2022-11-28T06:23:22.035Z,95320
2022-11-28T06:24:31.720Z,95311
2022-11-28T06:25:41.431Z,95313
2022-11-28T06:26:51.146Z,95312
2022-11-28T06:27:58.775Z,95303
2022-11-28T06:29:07.665Z,95301
2022-11-28T06:30:17.224Z,95303
2022-11-28T06:31:26.947Z,95308
2022-11-28T06:32:35.547Z,95306
2022-11-28T06:33:44.195Z,95306
2022-11-28T06:34:53.906Z,95308
2022-11-28T06:36:01.580Z,95304
2022-11-28T06:37:10.292Z,95309
2022-11-28T06:38:18.962Z,95308
2022-11-28T06:39:27.629Z,95312
2022-11-28T06:40:37.315Z,95317
2022-11-28T06:41:45.963Z,95305
2022-11-28T06:42:54.662Z,95298
2022-11-28T06:44:04.316Z,95292
2022-11-28T06:45:13.109Z,95302
2022-11-28T06:46:21.806Z,95309
2022-11-28T06:47:30.337Z,95308
2022-11-28T06:48:39.000Z,95308
2022-11-28T06:49:48.676Z,95305
2022-11-28T06:50:58.342Z,95310
2022-11-28T06:52:08.029Z,95314
2022-11-28T06:53:18.613Z,95313
2022-11-28T06:54:27.274Z,95314
2022-11-28T06:55:35.934Z,95309
2022-11-28T06:56:44.589Z,95305
2022-11-28T06:57:54.381Z,95304
2022-11-28T06:59:04.066Z,95305
2022-11-28T07:00:13.757Z,95310
2022-11-28T07:01:22.613Z,95307
2022-11-28T07:02:32.121Z,95303
2022-11-28T07:03:39.837Z,95294
2022-11-28T07:04:49.525Z,95289
2022-11-28T07:05:58.182Z,95285
2022-11-28T07:07:06.830Z,95286
2022-11-28T07:08:17.664Z,95293
2022-11-28T07:09:25.192Z,95289
2022-11-28T07:10:34.854Z,95287
2022-11-28T07:11:44.508Z,95285
2022-11-28T07:12:54.169Z,95281
2022-11-28T07:14:03.887Z,95285
2022-11-28T07:15:13.571Z,95292
2022-11-28T07:16:22.352Z,95294
2022-11-28T07:17:32.053Z,95295
2022-11-28T07:18:41.610Z,95294
2022-11-28T07:19:54.942Z,95290
2022-11-28T07:21:00.993Z,95300
2022-11-28T07:22:09.638Z,95301
2022-11-28T07:23:19.299Z,95301
2022-11-28T07:24:27.973Z,95300
2022-11-28T07:25:36.717Z,95295
2022-11-28T07:26:45.533Z,95298
2022-11-28T07:27:54.203Z,95295
2022-11-28T07:29:03.844Z,95287
2022-11-28T07:30:13.509Z,95295
2022-11-28T07:31:22.255Z,95299
2022-11-28T07:32:31.886Z,95291
2022-11-28T07:33:39.693Z,95295
2022-11-28T07:34:50.300Z,95300
2022-11-28T07:35:58.916Z,95294
2022-11-28T07:37:08.593Z,95293
2022-11-28T07:38:18.266Z,95300
2022-11-28T07:39:26.928Z,95299
2022-11-28T07:40:35.620Z,95288
2022-11-28T07:41:45.322Z,95300
2022-11-28T07:42:53.046Z,95301
2022-11-28T07:44:01.733Z,95299
2022-11-28T07:45:10.393Z,95299
2022-11-28T07:46:18.096Z,95311
2022-11-28T07:47:27.727Z,95314
2022-11-28T07:48:35.401Z,95307
2022-11-28T07:49:44.471Z,95293
2022-11-28T07:50:53.749Z,95293
2022-11-28T07:52:01.403Z,95289
2022-11-28T07:53:10.143Z,95286
2022-11-28T07:54:19.858Z,95286
2022-11-28T07:55:28.527Z,95282
2022-11-28T07:57:11.149Z,95282
2022-11-28T07:57:48.847Z,95288
2022-11-28T07:59:01.980Z,95290
2022-11-28T08:00:08.180Z,95281
2022-11-28T08:01:17.924Z,95283
2022-11-28T08:02:26.602Z,95279
2022-11-28T08:03:35.291Z,95280
2022-11-28T08:04:49.542Z,95278
2022-11-28T08:05:59.053Z,95273
2022-11-28T08:07:06.421Z,95273
2022-11-28T08:08:15.075Z,95276
2022-11-28T08:09:24.755Z,95269
2022-11-28T08:10:33.424Z,95265
2022-11-28T08:11:42.079Z,95263
2022-11-28T08:12:51.767Z,95263
2022-11-28T08:14:01.443Z,95267
2022-11-28T08:15:11.120Z,95264
2022-11-28T08:16:18.835Z,95265
2022-11-28T08:17:26.463Z,95262
2022-11-28T08:18:36.174Z,95259
2022-11-28T08:19:44.849Z,95256
2022-11-28T08:20:53.510Z,95258
2022-11-28T08:22:02.211Z,95259
2022-11-28T08:23:11.865Z,95257
2022-11-28T08:24:21.569Z,95265
2022-11-28T08:25:29.227Z,95259
2022-11-28T08:26:39.049Z,95272
2022-11-28T08:27:48.722Z,95266
2022-11-28T08:28:57.388Z,95266
2022-11-28T08:30:06.200Z,95272
2022-11-28T08:31:14.912Z,95273
2022-11-28T08:32:24.538Z,95270
2022-11-28T08:33:33.215Z,95288
2022-11-28T08:34:40.899Z,95291
2022-11-28T08:35:49.747Z,95284
2022-11-28T08:36:59.411Z,95286
2022-11-28T08:38:08.129Z,95292
2022-11-28T08:39:25.397Z,95288
2022-11-28T08:40:28.377Z,95295
2022-11-28T08:41:37.069Z,95292
2022-11-28T08:42:46.785Z,95292
2022-11-28T08:43:55.435Z,95292
2022-11-28T08:45:04.112Z,95300
2022-11-28T08:46:13.930Z,95294
2022-11-28T08:47:23.573Z,95289
2022-11-28T08:48:33.271Z,95279
2022-11-28T08:49:42.286Z,95281
2022-11-28T08:50:50.636Z,95275
2022-11-28T08:52:00.295Z,95277
2022-11-28T08:53:08.967Z,95284
2022-11-28T08:54:19.662Z,95280
2022-11-28T08:55:32.033Z,95282
2022-11-28T08:56:39.944Z,95278
2022-11-28T08:57:49.626Z,95278
2022-11-28T08:58:59.334Z,95275
2022-11-28T09:00:08.991Z,95278
2022-11-28T09:01:17.709Z,95276
2022-11-28T09:02:26.165Z,95276
2022-11-28T09:03:35.021Z,95275
2022-11-28T09:04:44.668Z,95279
2022-11-28T09:05:53.328Z,95277
2022-11-28T09:07:02.005Z,95279
2022-11-28T09:08:11.969Z,95281
2022-11-28T09:09:19.462Z,95296
2022-11-28T09:10:30.171Z,95298
2022-11-28T09:11:39.812Z,95289
2022-11-28T09:12:47.485Z,95294
2022-11-28T09:13:57.146Z,95282
2022-11-28T09:15:05.802Z,95286
2022-11-28T09:16:15.693Z,95300
2022-11-28T09:17:24.156Z,95299
2022-11-28T09:18:32.814Z,95300
2022-11-28T09:19:41.799Z,95291
2022-11-28T09:20:51.185Z,95291
2022-11-28T09:21:59.876Z,95295
2022-11-28T09:23:07.533Z,95300
2022-11-28T09:24:16.170Z,95298
2022-11-28T09:25:25.836Z,95298
2022-11-28T09:26:33.534Z,95296
2022-11-28T09:27:42.236Z,95300
2022-11-28T09:28:51.927Z,95304
2022-11-28T09:30:01.599Z,95301
2022-11-28T09:31:11.367Z,95300
2022-11-28T09:32:19.963Z,95304
2022-11-28T09:33:28.785Z,95307
2022-11-28T09:34:38.459Z,95304
2022-11-28T09:35:47.107Z,95303
2022-11-28T09:36:58.722Z,95301
2022-11-28T09:38:07.410Z,95297
2022-11-28T09:39:16.198Z,95294
2022-11-28T09:40:25.850Z,95297
2022-11-28T09:41:33.552Z,95294
2022-11-28T09:42:43.254Z,95296
2022-11-28T09:43:54.968Z,95291
2022-11-28T09:45:01.662Z,95292
2022-11-28T09:46:10.328Z,95291
2022-11-28T09:47:19.012Z,95294
2022-11-28T09:48:27.680Z,95289
2022-11-28T09:49:40.520Z,95290
2022-11-28T09:50:47.022Z,95293
2022-11-28T09:51:55.678Z,95288
2022-11-28T09:53:05.370Z,95288
2022-11-28T09:54:14.029Z,95290
2022-11-28T09:55:23.681Z,95290
2022-11-28T09:56:32.345Z,95293
2022-11-28T09:57:40.998Z,95291
2022-11-28T09:58:50.743Z,95293
2022-11-28T10:00:00.373Z,95294
2022-11-28T10:01:09.045Z,95294
2022-11-28T10:02:18.749Z,95295
2022-11-28T10:03:26.695Z,95295
2022-11-28T10:04:36.111Z,95294
2022-11-28T10:05:44.713Z,95294
2022-11-28T10:06:53.435Z,95298
2022-11-28T10:08:03.185Z,95297
2022-11-28T10:09:11.805Z,95298
2022-11-28T10:10:20.452Z,95292
2022-11-28T10:11:30.118Z,95296
2022-11-28T10:12:39.787Z,95296
2022-11-28T10:14:09.296Z,95293
2022-11-28T10:15:01.105Z,95292
2022-11-28T10:16:10.758Z,95290
2022-11-28T10:17:20.410Z,95283
2022-11-28T10:18:29.061Z,95290
2022-11-28T10:19:53.687Z,95295
2022-11-28T10:20:49.386Z,95287
2022-11-28T10:21:59.376Z,95292
2022-11-28T10:23:05.678Z,95293
2022-11-28T10:24:14.352Z,95293
2022-11-28T10:25:24.062Z,95290
2022-11-28T10:26:33.750Z,95283
2022-11-28T10:27:42.459Z,95278
2022-11-28T10:28:51.105Z,95284
2022-11-28T10:30:01.286Z,95290
2022-11-28T10:31:10.094Z,95290
2022-11-28T10:32:18.686Z,95290
2022-11-28T10:33:28.369Z,95288
2022-11-28T10:34:37.031Z,95289
2022-11-28T10:35:46.703Z,95286
2022-11-28T10:36:56.528Z,95286
2022-11-28T10:38:05.228Z,95282
2022-11-28T10:39:14.907Z,95286
2022-11-28T10:40:23.595Z,95283
2022-11-28T10:41:32.251Z,95276
2022-11-28T10:42:40.965Z,95273
2022-11-28T10:43:50.662Z,95280
2022-11-28T10:45:00.328Z,95280
2022-11-28T10:46:08.051Z,95276
2022-11-28T10:47:17.693Z,95281
2022-11-28T10:48:39.421Z,95279
2022-11-28T10:49:38.010Z,95279
2022-11-28T10:50:47.688Z,95276
2022-11-28T10:51:56.351Z,95272
2022-11-28T10:53:05.027Z,95280
2022-11-28T10:54:13.900Z,95283
2022-11-28T10:55:22.582Z,95277
2022-11-28T10:56:32.249Z,95280
2022-11-28T10:57:42.027Z,95279
2022-11-28T10:58:49.639Z,95275
2022-11-28T10:59:59.362Z,95268
2022-11-28T11:01:08.100Z,95271
2022-11-28T11:02:16.692Z,95269
2022-11-28T11:03:26.471Z,95270
2022-11-28T11:04:36.118Z,95268
2022-11-28T11:05:44.738Z,95269
2022-11-28T11:07:07.364Z,95265
2022-11-28T11:08:04.077Z,95265
2022-11-28T11:09:13.717Z,95267
2022-11-28T11:10:22.393Z,95261
2022-11-28T11:11:31.086Z,95266
2022-11-28T11:12:40.765Z,95269
2022-11-28T11:13:49.492Z,95270
2022-11-28T11:14:59.187Z,95271
2022-11-28T11:16:06.848Z,95272
2022-11-28T11:17:15.538Z,95274
2022-11-28T11:18:25.197Z,95269
2022-11-28T11:19:33.902Z,95277
2022-11-28T11:20:42.560Z,95281
2022-11-28T11:21:52.240Z,95277
2022-11-28T11:23:01.945Z,95277
2022-11-28T11:24:11.647Z,95278
2022-11-28T11:25:21.322Z,95269
2022-11-28T11:26:30.981Z,95267
2022-11-28T11:27:40.655Z,95274
2022-11-28T11:28:48.323Z,95277
2022-11-28T11:29:56.982Z,95275
2022-11-28T11:31:04.711Z,95274
2022-11-28T11:32:13.290Z,95273
2022-11-28T11:33:22.957Z,95271
2022-11-28T11:34:30.657Z,95267
2022-11-28T11:35:40.333Z,95267
2022-11-28T11:36:49.980Z,95268
2022-11-28T11:37:57.639Z,95266
2022-11-28T11:39:06.316Z,95272
2022-11-28T11:40:15.108Z,95267
2022-11-28T11:41:24.789Z,95265
2022-11-28T11:42:34.458Z,95261
2022-11-28T11:43:42.123Z,95261
2022-11-28T11:44:50.769Z,95260
2022-11-28T11:46:00.596Z,95257
2022-11-28T11:47:09.227Z,95258
2022-11-28T11:48:17.902Z,95262
2022-11-28T11:49:26.564Z,95258
2022-11-28T11:50:35.275Z,95255
2022-11-28T11:51:45.046Z,95257
2022-11-28T11:52:54.650Z,95257
2022-11-28T11:54:03.333Z,95259
2022-11-28T11:55:12.983Z,95255
2022-11-28T11:56:21.642Z,95261
2022-11-28T11:57:33.382Z,95260
2022-11-28T11:58:40.002Z,95262
2022-11-28T11:59:48.690Z,95260
2022-11-28T12:00:58.362Z,95255
2022-11-28T12:02:08.049Z,95253
2022-11-28T12:03:16.802Z,95253
2022-11-28T12:04:46.415Z,95249
2022-11-28T12:05:52.657Z,95254
2022-11-28T12:06:47.698Z,95253
2022-11-28T12:07:57.357Z,95250
2022-11-28T12:09:06.053Z,95252
2022-11-28T12:10:13.716Z,95249
2022-11-28T12:11:21.382Z,95249
2022-11-28T12:12:30.035Z,95253
2022-11-28T12:13:39.750Z,95250
2022-11-28T12:14:47.631Z,95251
2022-11-28T12:15:57.195Z,95249
2022-11-28T12:17:19.679Z,95247
2022-11-28T12:18:16.450Z,95245
2022-11-28T12:19:26.116Z,95245
2022-11-28T12:20:33.799Z,95244
2022-11-28T12:21:43.483Z,95242
2022-11-28T12:22:53.204Z,95240
2022-11-28T12:24:00.841Z,95243
2022-11-28T12:25:11.525Z,95244
2022-11-28T12:26:21.503Z,95245
2022-11-28T12:27:31.190Z,95248
2022-11-28T12:28:40.946Z,95249
2022-11-28T12:29:48.625Z,95247
2022-11-28T12:30:57.405Z,95245
2022-11-28T12:32:07.185Z,95250
2022-11-28T12:33:14.849Z,95247
2022-11-28T12:34:23.514Z,95248
2022-11-28T12:35:32.195Z,95244
2022-11-28T12:36:40.862Z,95241
2022-11-28T12:38:12.901Z,95245
2022-11-28T12:39:01.234Z,95245
2022-11-28T12:40:10.998Z,95242
2022-11-28T12:41:20.616Z,95246
2022-11-28T12:42:31.289Z,95247
2022-11-28T12:43:40.023Z,95247
2022-11-28T12:44:48.712Z,95248
2022-11-28T12:45:57.393Z,95250
2022-11-28T12:47:07.072Z,95251
2022-11-28T12:48:16.782Z,95247
2022-11-28T12:49:26.484Z,95245
2022-11-28T12:50:35.189Z,95248
2022-11-28T12:51:44.880Z,95249
2022-11-28T12:52:53.612Z,95249
2022-11-28T12:54:02.301Z,95249
2022-11-28T12:55:11.036Z,95251
2022-11-28T12:56:20.708Z,95248
2022-11-28T12:57:29.465Z,95249
2022-11-28T12:58:38.179Z,95247
2022-11-28T12:59:48.183Z,95250
2022-11-28T13:00:55.574Z,95247
2022-11-28T13:02:09.514Z,95245
2022-11-28T13:03:15.019Z,95244
2022-11-28T13:04:23.698Z,95247
2022-11-28T13:05:33.391Z,95245
2022-11-28T13:06:42.086Z,95249
2022-11-28T13:07:50.763Z,95248
2022-11-28T13:09:00.563Z,95245
2022-11-28T13:10:10.373Z,95248
2022-11-28T13:11:20.025Z,95246
2022-11-28T13:12:28.719Z,95249
2022-11-28T13:13:38.371Z,95248
2022-11-28T13:14:48.499Z,95251
2022-11-28T13:15:57.812Z,95249
2022-11-28T13:17:07.448Z,95250
2022-11-28T13:18:16.181Z,95243
2022-11-28T13:19:24.923Z,95246
2022-11-28T13:20:34.648Z,95246
2022-11-28T13:21:43.324Z,95245
2022-11-28T13:22:52.009Z,95242
2022-11-28T13:24:06.792Z,95244
2022-11-28T13:25:11.340Z,95246
2022-11-28T13:26:21.042Z,95242
2022-11-28T13:27:28.768Z,95248
2022-11-28T13:28:37.456Z,95248
2022-11-28T13:29:47.257Z,95246
2022-11-28T13:30:55.981Z,95247
2022-11-28T13:32:04.636Z,95250
2022-11-28T13:33:13.349Z,95251
2022-11-28T13:34:23.087Z,95247
2022-11-28T13:35:32.139Z,95245
2022-11-28T13:39:12.196Z,95252
2022-11-28T13:40:12.845Z,95249
2022-11-28T13:41:53.097Z,95247
2022-11-28T13:43:43.874Z,95252
2022-11-28T13:44:53.574Z,95252
2022-11-28T13:46:02.304Z,95249
2022-11-28T13:47:11.071Z,95248
2022-11-28T13:48:21.255Z,95251
2022-11-28T13:49:31.456Z,95251
2022-11-28T13:50:40.148Z,95251
2022-11-28T13:51:49.900Z,95251
2022-11-28T13:52:59.737Z,95251
2022-11-28T13:54:09.542Z,95246
2022-11-28T13:55:18.224Z,95248
2022-11-28T13:56:28.006Z,95249
2022-11-28T13:57:37.778Z,95251
2022-11-28T13:58:46.446Z,95241
2022-11-28T13:59:55.117Z,95249
2022-11-28T14:01:03.802Z,95247
2022-11-28T14:02:13.572Z,95249
2022-11-28T14:03:23.204Z,95247
2022-11-28T14:04:31.897Z,95248
2022-11-28T14:05:41.950Z,95247
2022-11-28T14:06:52.364Z,95249
2022-11-28T14:07:59.978Z,95251
2022-11-28T14:09:08.620Z,95243
2022-11-28T14:10:18.322Z,95245
2022-11-28T14:11:27.968Z,95249
2022-11-28T14:12:36.662Z,95248
2022-11-28T14:13:45.370Z,95246
2022-11-28T14:14:55.019Z,95248
2022-11-28T14:16:04.781Z,95248
2022-11-28T14:17:13.438Z,95243
2022-11-28T14:18:54.836Z,95247
2022-11-28T14:19:33.782Z,95246
2022-11-28T14:20:43.560Z,95240
2022-11-28T14:21:53.263Z,95239
2022-11-28T14:23:01.931Z,95238
2022-11-28T14:24:11.621Z,95240
2022-11-28T14:25:21.302Z,95242
2022-11-28T14:26:29.689Z,95249
2022-11-28T14:27:39.417Z,95242
2022-11-28T14:28:48.254Z,95243
2022-11-28T14:29:56.895Z,95242
2022-11-28T14:31:06.564Z,95238
2022-11-28T14:32:29.394Z,95244
2022-11-28T14:33:24.955Z,95240
2022-11-28T14:34:34.664Z,95237
2022-11-28T14:35:42.308Z,95242
2022-11-28T14:36:50.973Z,95236
2022-11-28T14:38:00.687Z,95240
2022-11-28T14:39:09.670Z,95237
2022-11-28T14:40:19.353Z,95246
2022-11-28T14:41:27.031Z,95243
2022-11-28T14:42:59.348Z,95241
2022-11-28T14:43:47.334Z,95241
2022-11-28T14:44:55.031Z,95243
2022-11-28T14:46:04.667Z,95243
2022-11-28T14:47:14.363Z,95239
2022-11-28T14:48:24.073Z,95244
2022-11-28T14:49:33.741Z,95245
2022-11-28T14:50:41.550Z,95243
2022-11-28T14:51:51.543Z,95247
2022-11-28T14:53:00.889Z,95241